Impacts METAR Board INFO
IDs:

KSEA - Seattle-Tacoma Intl, WA, US

Updated at: 0007 UTC 17 Dec 2017
Potential Impact None Slight Moderate High
Time16/12Z 16/13Z 16/14Z 16/15Z 16/16Z 16/17Z 16/18Z 16/19Z 16/20Z 16/21Z 16/22Z 16/23Z 17/00Z
VIS7 7 10 10 10 10 10 10 10 10 10 10 10
CIG140 140 -- 140 -- 120 90 80 17 24 70 12 15
CoverBKNBKNFEWBKNSCTOVCBKNOVCOVCOVCOVCOVCBKN
FltCatVFRVFRVFRVFRVFRVFRVFRVFRMVFRMVFRVFRMVFRMVFR
WX--------------------------
WDir13013013012015015012015000150160160
WSpd4 5 5 6 6 5 7 6 4 0 4 4 5
WGst-- -- -- -- -- -- -- -- -- -- -- -- --
Raw hourly METARs
KSEA 161153Z 13004KT 7SM BKN140 04/03 A3029 RMK AO2 SLP265 70006 T00390033 10056 20039 51005 $
KSEA 161253Z 13005KT 7SM BKN140 03/03 A3029 RMK AO2 SLP265 T00330028 $
KSEA 161353Z 13005KT 10SM FEW140 03/03 A3030 RMK AO2 SLP269 T00330028 $
KSEA 161453Z 12006KT 10SM SCT040 BKN140 03/03 A3029 RMK AO2 SLP266 T00330028 50001 $
KSEA 161553Z 15006KT 10SM FEW040 SCT130 04/03 A3031 RMK AO2 SLP274 T00390028 $
KSEA 161653Z 15005KT 10SM FEW040 OVC120 04/03 A3032 RMK AO2 SLP275 T00440033 $
KSEA 161753Z 12007KT 10SM FEW040 BKN090 05/03 A3034 RMK AO2 SLP282 T00500028 10056 20028 51016 $
KSEA 161853Z 15006KT 10SM FEW040 BKN080 OVC140 06/03 A3033 RMK AO2 SLP279 T00610033 $
KSEA 161953Z VRB04KT 10SM BKN017 OVC100 07/04 A3032 RMK AO2 SLP275 T00720044 $
KSEA 162053Z 00000KT 10SM BKN024 OVC080 07/04 A3032 RMK AO2 SLP276 T00670039 55005 $
KSEA 162153Z 15004KT 10SM FEW012 OVC070 07/04 A3030 RMK AO2 SLP269 T00670039 $
KSEA 162253Z 16004KT 10SM BKN012 OVC070 07/04 A3029 RMK AO2 SLP267 T00720044 $
KSEA 162353Z 16005KT 10SM FEW008 BKN015 BKN025 07/04 A3028 RMK AO2 SLP262 T00670044 10072 20050 56014 $